Terminal Aerodrome Forecast
Issued by NWS Binghamton, NY

Home | Current Version | Previous Version | Text Only | Print | Product List | Glossary On
Versions: 1 2 3 4 5 6 7 8 9 10 11 12 13 14 15 16
747
FTUS41 KBGM 021720
TAFSYR
TAF
KSYR 021720Z 0218/0318 32006KT P6SM -SHRA OVC015
      TEMPO 0218/0220 OVC009
     FM022000 34003KT P6SM OVC015
      TEMPO 0307/0311 2SM BR OVC005
     FM031300 36004KT P6SM BKN050=

USA.gov is the U.S. government's official web portal to all federal, state and local government web resources and services.